Аэропорт: Габала. Габала

ICAO: UBBQ

METAR:
2021-10-23 02:00:00
UBBQ 230200Z 00000KT 4100 BR NSC 03/02 Q1021 R34/////// NOSIG RMK MT OP
METAR:
Информация по данной станции не доступна